sensor_id;sensor_type;location;lat;lon;timestamp;P1;durP1;ratioP1;P2;durP2;ratioP2
25437;SDS011;13364;49.084;9.978;2024-03-08T00:02:36;21.00;;;10.63;;
25437;SDS011;13364;49.084;9.978;2024-03-08T00:05:04;23.98;;;11.88;;
25437;SDS011;13364;49.084;9.978;2024-03-08T00:07:32;23.85;;;11.57;;
25437;SDS011;13364;49.084;9.978;2024-03-08T00:09:59;20.23;;;11.57;;
25437;SDS011;13364;49.084;9.978;2024-03-08T00:12:26;22.85;;;11.25;;
25437;SDS011;13364;49.084;9.978;2024-03-08T00:14:53;24.92;;;11.88;;
25437;SDS011;13364;49.084;9.978;2024-03-08T00:17:21;23.80;;;11.23;;
25437;SDS011;13364;49.084;9.978;2024-03-08T00:19:55;26.90;;;13.05;;
25437;SDS011;13364;49.084;9.978;2024-03-08T00:22:22;17.73;;;10.90;;
25437;SDS011;13364;49.084;9.978;2024-03-08T00:24:48;21.48;;;10.35;;
25437;SDS011;13364;49.084;9.978;2024-03-08T00:27:18;16.58;;;9.48;;
25437;SDS011;13364;49.084;9.978;2024-03-08T00:29:47;20.27;;;11.00;;
25437;SDS011;13364;49.084;9.978;2024-03-08T00:32:14;27.20;;;13.52;;
25437;SDS011;13364;49.084;9.978;2024-03-08T00:34:43;22.15;;;10.70;;
25437;SDS011;13364;49.084;9.978;2024-03-08T00:37:10;22.35;;;12.43;;
25437;SDS011;13364;49.084;9.978;2024-03-08T00:39:37;23.23;;;11.32;;
25437;SDS011;13364;49.084;9.978;2024-03-08T00:42:03;19.00;;;10.10;;
25437;SDS011;13364;49.084;9.978;2024-03-08T00:44:31;22.83;;;9.57;;
25437;SDS011;13364;49.084;9.978;2024-03-08T00:46:58;19.92;;;10.63;;
25437;SDS011;13364;49.084;9.978;2024-03-08T00:49:25;22.45;;;11.73;;
25437;SDS011;13364;49.084;9.978;2024-03-08T00:51:52;18.90;;;10.57;;
25437;SDS011;13364;49.084;9.978;2024-03-08T00:54:19;23.33;;;10.93;;
25437;SDS011;13364;49.084;9.978;2024-03-08T00:56:46;22.42;;;10.45;;
25437;SDS011;13364;49.084;9.978;2024-03-08T00:59:13;27.42;;;11.65;;
25437;SDS011;13364;49.084;9.978;2024-03-08T01:01:40;21.30;;;11.52;;
25437;SDS011;13364;49.084;9.978;2024-03-08T01:04:07;18.00;;;10.18;;
25437;SDS011;13364;49.084;9.978;2024-03-08T01:06:34;24.23;;;10.70;;
25437;SDS011;13364;49.084;9.978;2024-03-08T01:09:01;21.33;;;11.90;;
25437;SDS011;13364;49.084;9.978;2024-03-08T01:11:28;23.75;;;10.85;;
25437;SDS011;13364;49.084;9.978;2024-03-08T01:13:55;20.73;;;10.52;;
25437;SDS011;13364;49.084;9.978;2024-03-08T01:16:22;18.38;;;10.27;;
25437;SDS011;13364;49.084;9.978;2024-03-08T01:18:49;20.77;;;10.98;;
25437;SDS011;13364;49.084;9.978;2024-03-08T01:21:17;19.00;;;10.27;;
25437;SDS011;13364;49.084;9.978;2024-03-08T01:23:44;18.77;;;10.18;;
25437;SDS011;13364;49.084;9.978;2024-03-08T01:26:10;20.42;;;10.32;;
25437;SDS011;13364;49.084;9.978;2024-03-08T01:28:37;26.73;;;10.93;;
25437;SDS011;13364;49.084;9.978;2024-03-08T01:31:04;20.30;;;10.63;;
25437;SDS011;13364;49.084;9.978;2024-03-08T01:33:32;23.40;;;10.43;;
25437;SDS011;13364;49.084;9.978;2024-03-08T01:35:59;23.27;;;11.77;;
25437;SDS011;13364;49.084;9.978;2024-03-08T01:38:26;20.77;;;10.50;;
25437;SDS011;13364;49.084;9.978;2024-03-08T01:40:53;24.08;;;11.38;;
25437;SDS011;13364;49.084;9.978;2024-03-08T01:43:20;23.90;;;11.85;;
25437;SDS011;13364;49.084;9.978;2024-03-08T01:45:57;24.70;;;12.02;;
25437;SDS011;13364;49.084;9.978;2024-03-08T01:48:30;17.33;;;9.82;;
25437;SDS011;13364;49.084;9.978;2024-03-08T01:50:58;18.90;;;9.95;;
25437;SDS011;13364;49.084;9.978;2024-03-08T01:53:25;17.00;;;9.95;;
25437;SDS011;13364;49.084;9.978;2024-03-08T01:55:54;16.67;;;9.73;;
25437;SDS011;13364;49.084;9.978;2024-03-08T01:58:24;19.30;;;10.43;;
25437;SDS011;13364;49.084;9.978;2024-03-08T02:00:54;21.88;;;10.38;;
25437;SDS011;13364;49.084;9.978;2024-03-08T02:03:23;15.20;;;6.65;;
25437;SDS011;13364;49.084;9.978;2024-03-08T02:05:50;18.17;;;9.38;;
25437;SDS011;13364;49.084;9.978;2024-03-08T02:08:18;22.55;;;10.05;;
25437;SDS011;13364;49.084;9.978;2024-03-08T02:10:49;25.83;;;10.57;;
25437;SDS011;13364;49.084;9.978;2024-03-08T02:13:16;21.13;;;10.63;;
25437;SDS011;13364;49.084;9.978;2024-03-08T02:15:55;21.92;;;11.18;;
25437;SDS011;13364;49.084;9.978;2024-03-08T02:18:25;24.88;;;11.35;;
25437;SDS011;13364;49.084;9.978;2024-03-08T02:20:54;23.13;;;11.20;;
25437;SDS011;13364;49.084;9.978;2024-03-08T02:23:30;20.75;;;9.65;;
25437;SDS011;13364;49.084;9.978;2024-03-08T02:25:58;18.63;;;9.98;;
25437;SDS011;13364;49.084;9.978;2024-03-08T02:28:25;23.55;;;11.93;;
25437;SDS011;13364;49.084;9.978;2024-03-08T02:30:52;21.58;;;10.40;;
25437;SDS011;13364;49.084;9.978;2024-03-08T02:33:24;22.30;;;11.05;;
25437;SDS011;13364;49.084;9.978;2024-03-08T02:35:51;21.33;;;10.10;;
25437;SDS011;13364;49.084;9.978;2024-03-08T02:38:19;22.90;;;11.05;;
25437;SDS011;13364;49.084;9.978;2024-03-08T02:40:48;21.42;;;10.63;;
25437;SDS011;13364;49.084;9.978;2024-03-08T02:43:16;21.45;;;10.77;;
25437;SDS011;13364;49.084;9.978;2024-03-08T02:45:45;20.65;;;8.75;;
25437;SDS011;13364;49.084;9.978;2024-03-08T02:48:12;22.75;;;9.88;;
25437;SDS011;13364;49.084;9.978;2024-03-08T02:50:40;22.65;;;10.07;;
25437;SDS011;13364;49.084;9.978;2024-03-08T02:53:09;19.92;;;8.43;;
25437;SDS011;13364;49.084;9.978;2024-03-08T02:55:37;18.58;;;8.68;;
25437;SDS011;13364;49.084;9.978;2024-03-08T02:58:05;17.35;;;9.18;;
25437;SDS011;13364;49.084;9.978;2024-03-08T03:00:35;20.77;;;9.60;;
25437;SDS011;13364;49.084;9.978;2024-03-08T03:03:08;18.88;;;9.55;;
25437;SDS011;13364;49.084;9.978;2024-03-08T03:05:35;18.30;;;8.48;;
25437;SDS011;13364;49.084;9.978;2024-03-08T03:08:02;20.73;;;9.52;;
25437;SDS011;13364;49.084;9.978;2024-03-08T03:10:35;25.52;;;10.55;;
25437;SDS011;13364;49.084;9.978;2024-03-08T03:13:02;23.45;;;10.40;;
25437;SDS011;13364;49.084;9.978;2024-03-08T03:15:31;15.20;;;7.43;;
25437;SDS011;13364;49.084;9.978;2024-03-08T03:17:57;15.30;;;8.57;;
25437;SDS011;13364;49.084;9.978;2024-03-08T03:20:24;19.65;;;9.65;;
25437;SDS011;13364;49.084;9.978;2024-03-08T03:22:53;19.38;;;9.10;;
25437;SDS011;13364;49.084;9.978;2024-03-08T03:25:22;15.93;;;8.35;;
25437;SDS011;13364;49.084;9.978;2024-03-08T03:27:55;20.42;;;8.85;;
25437;SDS011;13364;49.084;9.978;2024-03-08T03:30:23;20.23;;;9.75;;
25437;SDS011;13364;49.084;9.978;2024-03-08T03:32:53;24.90;;;10.48;;
25437;SDS011;13364;49.084;9.978;2024-03-08T03:35:21;22.38;;;9.85;;
25437;SDS011;13364;49.084;9.978;2024-03-08T03:37:48;18.23;;;9.27;;
25437;SDS011;13364;49.084;9.978;2024-03-08T03:40:33;23.83;;;9.15;;
25437;SDS011;13364;49.084;9.978;2024-03-08T03:43:03;23.08;;;9.27;;
25437;SDS011;13364;49.084;9.978;2024-03-08T03:45:30;24.67;;;9.82;;
25437;SDS011;13364;49.084;9.978;2024-03-08T03:48:03;20.70;;;10.25;;
25437;SDS011;13364;49.084;9.978;2024-03-08T03:50:33;19.83;;;9.70;;
25437;SDS011;13364;49.084;9.978;2024-03-08T03:53:02;22.50;;;10.50;;
25437;SDS011;13364;49.084;9.978;2024-03-08T03:55:29;18.17;;;9.40;;
25437;SDS011;13364;49.084;9.978;2024-03-08T03:57:56;20.98;;;8.57;;
25437;SDS011;13364;49.084;9.978;2024-03-08T04:00:25;24.60;;;9.77;;
25437;SDS011;13364;49.084;9.978;2024-03-08T04:02:53;21.08;;;9.35;;
25437;SDS011;13364;49.084;9.978;2024-03-08T04:05:21;27.02;;;10.80;;
25437;SDS011;13364;49.084;9.978;2024-03-08T04:07:48;23.02;;;9.68;;
25437;SDS011;13364;49.084;9.978;2024-03-08T04:10:15;16.95;;;9.07;;
25437;SDS011;13364;49.084;9.978;2024-03-08T04:12:42;18.92;;;9.77;;
25437;SDS011;13364;49.084;9.978;2024-03-08T04:15:09;19.15;;;10.93;;
25437;SDS011;13364;49.084;9.978;2024-03-08T04:17:37;23.70;;;10.60;;
25437;SDS011;13364;49.084;9.978;2024-03-08T04:20:06;22.42;;;11.00;;
25437;SDS011;13364;49.084;9.978;2024-03-08T04:22:37;20.58;;;10.23;;
25437;SDS011;13364;49.084;9.978;2024-03-08T04:25:06;25.50;;;11.10;;
25437;SDS011;13364;49.084;9.978;2024-03-08T04:27:33;20.88;;;9.27;;
25437;SDS011;13364;49.084;9.978;2024-03-08T04:30:01;21.52;;;9.98;;
25437;SDS011;13364;49.084;9.978;2024-03-08T04:32:29;22.17;;;11.48;;
25437;SDS011;13364;49.084;9.978;2024-03-08T04:34:56;18.70;;;10.20;;
25437;SDS011;13364;49.084;9.978;2024-03-08T04:37:23;22.33;;;9.70;;
25437;SDS011;13364;49.084;9.978;2024-03-08T04:39:51;18.20;;;10.35;;
25437;SDS011;13364;49.084;9.978;2024-03-08T04:42:18;21.75;;;10.82;;
25437;SDS011;13364;49.084;9.978;2024-03-08T04:44:45;23.50;;;10.75;;
25437;SDS011;13364;49.084;9.978;2024-03-08T04:47:12;20.05;;;10.00;;
25437;SDS011;13364;49.084;9.978;2024-03-08T04:49:39;25.65;;;10.88;;
25437;SDS011;13364;49.084;9.978;2024-03-08T04:52:06;25.17;;;10.25;;
25437;SDS011;13364;49.084;9.978;2024-03-08T04:54:33;22.88;;;10.10;;
25437;SDS011;13364;49.084;9.978;2024-03-08T04:57:00;19.27;;;10.32;;
25437;SDS011;13364;49.084;9.978;2024-03-08T04:59:32;25.05;;;10.85;;
25437;SDS011;13364;49.084;9.978;2024-03-08T05:01:59;17.95;;;8.88;;
25437;SDS011;13364;49.084;9.978;2024-03-08T05:04:25;21.08;;;9.32;;
25437;SDS011;13364;49.084;9.978;2024-03-08T05:06:52;18.25;;;10.25;;
25437;SDS011;13364;49.084;9.978;2024-03-08T05:09:20;18.17;;;9.52;;
25437;SDS011;13364;49.084;9.978;2024-03-08T05:11:47;24.08;;;10.10;;
25437;SDS011;13364;49.084;9.978;2024-03-08T05:14:14;23.35;;;10.27;;
25437;SDS011;13364;49.084;9.978;2024-03-08T05:16:46;22.75;;;9.40;;
25437;SDS011;13364;49.084;9.978;2024-03-08T05:19:17;27.38;;;11.05;;
25437;SDS011;13364;49.084;9.978;2024-03-08T05:21:49;21.77;;;9.10;;
25437;SDS011;13364;49.084;9.978;2024-03-08T05:24:16;21.73;;;10.07;;
25437;SDS011;13364;49.084;9.978;2024-03-08T05:26:45;22.85;;;9.02;;
25437;SDS011;13364;49.084;9.978;2024-03-08T05:29:12;23.75;;;9.75;;
25437;SDS011;13364;49.084;9.978;2024-03-08T05:31:50;24.85;;;11.18;;
25437;SDS011;13364;49.084;9.978;2024-03-08T05:34:19;19.45;;;10.05;;
25437;SDS011;13364;49.084;9.978;2024-03-08T05:36:46;23.05;;;9.38;;
25437;SDS011;13364;49.084;9.978;2024-03-08T05:39:13;20.35;;;9.88;;
25437;SDS011;13364;49.084;9.978;2024-03-08T05:41:40;24.90;;;10.45;;
25437;SDS011;13364;49.084;9.978;2024-03-08T05:44:10;18.58;;;9.10;;
25437;SDS011;13364;49.084;9.978;2024-03-08T05:46:37;20.70;;;10.45;;
25437;SDS011;13364;49.084;9.978;2024-03-08T05:49:04;19.38;;;9.45;;
25437;SDS011;13364;49.084;9.978;2024-03-08T05:51:33;18.80;;;8.95;;
25437;SDS011;13364;49.084;9.978;2024-03-08T05:54:04;21.30;;;9.68;;
25437;SDS011;13364;49.084;9.978;2024-03-08T05:56:32;17.15;;;9.02;;
25437;SDS011;13364;49.084;9.978;2024-03-08T05:59:00;23.45;;;9.70;;
25437;SDS011;13364;49.084;9.978;2024-03-08T06:01:27;20.80;;;10.18;;
25437;SDS011;13364;49.084;9.978;2024-03-08T06:03:54;24.20;;;9.70;;
25437;SDS011;13364;49.084;9.978;2024-03-08T06:06:25;19.80;;;9.55;;
25437;SDS011;13364;49.084;9.978;2024-03-08T06:08:52;19.33;;;8.95;;
25437;SDS011;13364;49.084;9.978;2024-03-08T06:11:20;20.15;;;10.45;;
25437;SDS011;13364;49.084;9.978;2024-03-08T06:13:47;21.50;;;9.73;;
25437;SDS011;13364;49.084;9.978;2024-03-08T06:16:15;17.63;;;9.63;;
25437;SDS011;13364;49.084;9.978;2024-03-08T06:18:42;20.38;;;10.27;;
25437;SDS011;13364;49.084;9.978;2024-03-08T06:21:10;19.38;;;10.35;;
25437;SDS011;13364;49.084;9.978;2024-03-08T06:23:38;19.42;;;9.07;;
25437;SDS011;13364;49.084;9.978;2024-03-08T06:26:06;21.80;;;9.63;;
25437;SDS011;13364;49.084;9.978;2024-03-08T06:28:36;17.08;;;9.43;;
25437;SDS011;13364;49.084;9.978;2024-03-08T06:31:03;22.77;;;10.15;;
25437;SDS011;13364;49.084;9.978;2024-03-08T06:33:30;24.50;;;11.38;;
25437;SDS011;13364;49.084;9.978;2024-03-08T06:35:58;24.40;;;10.65;;
25437;SDS011;13364;49.084;9.978;2024-03-08T06:38:25;19.35;;;8.95;;
25437;SDS011;13364;49.084;9.978;2024-03-08T06:40:53;20.92;;;10.35;;
25437;SDS011;13364;49.084;9.978;2024-03-08T06:43:20;19.13;;;10.02;;
25437;SDS011;13364;49.084;9.978;2024-03-08T06:45:48;19.38;;;11.27;;
25437;SDS011;13364;49.084;9.978;2024-03-08T06:48:15;24.85;;;10.98;;
25437;SDS011;13364;49.084;9.978;2024-03-08T06:50:44;24.20;;;12.15;;
25437;SDS011;13364;49.084;9.978;2024-03-08T06:53:12;21.50;;;11.05;;
25437;SDS011;13364;49.084;9.978;2024-03-08T06:55:40;23.02;;;12.23;;
25437;SDS011;13364;49.084;9.978;2024-03-08T06:58:07;25.42;;;12.15;;
25437;SDS011;13364;49.084;9.978;2024-03-08T07:00:34;21.20;;;11.27;;
25437;SDS011;13364;49.084;9.978;2024-03-08T07:03:01;23.30;;;13.23;;
25437;SDS011;13364;49.084;9.978;2024-03-08T07:05:29;25.73;;;12.88;;
25437;SDS011;13364;49.084;9.978;2024-03-08T07:07:57;28.20;;;12.60;;
25437;SDS011;13364;49.084;9.978;2024-03-08T07:10:24;34.13;;;15.40;;
25437;SDS011;13364;49.084;9.978;2024-03-08T07:12:52;26.08;;;14.07;;
25437;SDS011;13364;49.084;9.978;2024-03-08T07:15:21;27.42;;;12.55;;
25437;SDS011;13364;49.084;9.978;2024-03-08T07:17:49;27.40;;;14.10;;
25437;SDS011;13364;49.084;9.978;2024-03-08T07:22:46;23.60;;;10.80;;
25437;SDS011;13364;49.084;9.978;2024-03-08T07:25:14;27.92;;;13.02;;
25437;SDS011;13364;49.084;9.978;2024-03-08T07:27:53;29.92;;;13.93;;
25437;SDS011;13364;49.084;9.978;2024-03-08T07:30:25;23.05;;;11.95;;
25437;SDS011;13364;49.084;9.978;2024-03-08T07:33:21;24.20;;;12.63;;
25437;SDS011;13364;49.084;9.978;2024-03-08T07:35:49;22.08;;;12.45;;
25437;SDS011;13364;49.084;9.978;2024-03-08T07:38:16;28.42;;;13.27;;
25437;SDS011;13364;49.084;9.978;2024-03-08T07:40:43;27.55;;;12.65;;
25437;SDS011;13364;49.084;9.978;2024-03-08T07:43:11;28.52;;;14.23;;
25437;SDS011;13364;49.084;9.978;2024-03-08T07:45:38;28.10;;;13.60;;
25437;SDS011;13364;49.084;9.978;2024-03-08T07:48:05;25.27;;;12.43;;
25437;SDS011;13364;49.084;9.978;2024-03-08T07:50:40;25.63;;;12.52;;
25437;SDS011;13364;49.084;9.978;2024-03-08T07:53:07;23.05;;;12.30;;
25437;SDS011;13364;49.084;9.978;2024-03-08T07:55:34;25.77;;;13.35;;
25437;SDS011;13364;49.084;9.978;2024-03-08T07:58:02;28.02;;;12.35;;
25437;SDS011;13364;49.084;9.978;2024-03-08T08:00:29;29.23;;;13.73;;
25437;SDS011;13364;49.084;9.978;2024-03-08T08:02:58;26.08;;;12.27;;
25437;SDS011;13364;49.084;9.978;2024-03-08T08:05:25;28.75;;;14.48;;
25437;SDS011;13364;49.084;9.978;2024-03-08T08:07:52;31.38;;;14.35;;
25437;SDS011;13364;49.084;9.978;2024-03-08T08:10:20;22.92;;;12.85;;
25437;SDS011;13364;49.084;9.978;2024-03-08T08:12:52;22.88;;;11.73;;
25437;SDS011;13364;49.084;9.978;2024-03-08T08:15:19;29.13;;;13.80;;
25437;SDS011;13364;49.084;9.978;2024-03-08T08:17:46;28.02;;;14.23;;
25437;SDS011;13364;49.084;9.978;2024-03-08T08:20:18;28.25;;;14.32;;
25437;SDS011;13364;49.084;9.978;2024-03-08T08:22:45;33.58;;;14.07;;
25437;SDS011;13364;49.084;9.978;2024-03-08T08:25:14;29.30;;;14.38;;
25437;SDS011;13364;49.084;9.978;2024-03-08T08:27:41;26.83;;;12.70;;
25437;SDS011;13364;49.084;9.978;2024-03-08T08:30:09;27.45;;;14.18;;
25437;SDS011;13364;49.084;9.978;2024-03-08T08:32:37;26.33;;;13.80;;
25437;SDS011;13364;49.084;9.978;2024-03-08T08:35:10;31.13;;;13.88;;
25437;SDS011;13364;49.084;9.978;2024-03-08T08:37:39;29.52;;;15.10;;
25437;SDS011;13364;49.084;9.978;2024-03-08T08:40:06;35.55;;;15.50;;
25437;SDS011;13364;49.084;9.978;2024-03-08T08:42:37;29.25;;;15.75;;
25437;SDS011;13364;49.084;9.978;2024-03-08T08:45:07;28.27;;;15.07;;
25437;SDS011;13364;49.084;9.978;2024-03-08T08:47:43;34.03;;;15.30;;
25437;SDS011;13364;49.084;9.978;2024-03-08T08:50:11;31.17;;;14.75;;
25437;SDS011;13364;49.084;9.978;2024-03-08T08:52:42;25.98;;;13.48;;
25437;SDS011;13364;49.084;9.978;2024-03-08T08:55:11;28.17;;;15.20;;
25437;SDS011;13364;49.084;9.978;2024-03-08T08:57:41;30.80;;;15.25;;
25437;SDS011;13364;49.084;9.978;2024-03-08T09:00:09;33.50;;;15.88;;
25437;SDS011;13364;49.084;9.978;2024-03-08T09:02:41;28.27;;;15.55;;
25437;SDS011;13364;49.084;9.978;2024-03-08T09:05:09;30.55;;;15.55;;
25437;SDS011;13364;49.084;9.978;2024-03-08T09:07:36;29.13;;;15.80;;
25437;SDS011;13364;49.084;9.978;2024-03-08T09:10:04;34.42;;;16.63;;
25437;SDS011;13364;49.084;9.978;2024-03-08T09:12:34;31.42;;;16.08;;
25437;SDS011;13364;49.084;9.978;2024-03-08T09:15:00;31.25;;;15.02;;
25437;SDS011;13364;49.084;9.978;2024-03-08T09:17:27;32.00;;;15.20;;
25437;SDS011;13364;49.084;9.978;2024-03-08T09:19:54;33.75;;;16.38;;
25437;SDS011;13364;49.084;9.978;2024-03-08T09:22:21;32.72;;;14.98;;
25437;SDS011;13364;49.084;9.978;2024-03-08T09:24:51;32.97;;;16.83;;
25437;SDS011;13364;49.084;9.978;2024-03-08T09:27:18;26.42;;;15.68;;
25437;SDS011;13364;49.084;9.978;2024-03-08T09:29:45;33.28;;;16.80;;
25437;SDS011;13364;49.084;9.978;2024-03-08T09:32:12;35.95;;;16.73;;
25437;SDS011;13364;49.084;9.978;2024-03-08T09:34:39;32.78;;;16.98;;
25437;SDS011;13364;49.084;9.978;2024-03-08T09:37:06;33.05;;;16.33;;
25437;SDS011;13364;49.084;9.978;2024-03-08T09:39:35;33.00;;;17.75;;
25437;SDS011;13364;49.084;9.978;2024-03-08T09:42:02;35.00;;;17.67;;
25437;SDS011;13364;49.084;9.978;2024-03-08T09:44:29;30.27;;;15.77;;
25437;SDS011;13364;49.084;9.978;2024-03-08T09:46:55;32.22;;;16.25;;
25437;SDS011;13364;49.084;9.978;2024-03-08T09:49:24;24.30;;;12.25;;
25437;SDS011;13364;49.084;9.978;2024-03-08T09:51:51;27.17;;;15.35;;
25437;SDS011;13364;49.084;9.978;2024-03-08T09:54:19;27.55;;;14.70;;
25437;SDS011;13364;49.084;9.978;2024-03-08T09:56:51;25.98;;;14.55;;
25437;SDS011;13364;49.084;9.978;2024-03-08T09:59:18;32.30;;;15.88;;
25437;SDS011;13364;49.084;9.978;2024-03-08T10:01:54;27.95;;;16.65;;
25437;SDS011;13364;49.084;9.978;2024-03-08T10:04:22;29.27;;;15.02;;
25437;SDS011;13364;49.084;9.978;2024-03-08T10:06:49;31.08;;;16.25;;
25437;SDS011;13364;49.084;9.978;2024-03-08T10:09:16;28.80;;;15.45;;
25437;SDS011;13364;49.084;9.978;2024-03-08T10:11:43;28.35;;;14.88;;
25437;SDS011;13364;49.084;9.978;2024-03-08T10:14:10;31.48;;;15.85;;
25437;SDS011;13364;49.084;9.978;2024-03-08T10:16:40;31.60;;;16.00;;
25437;SDS011;13364;49.084;9.978;2024-03-08T10:19:07;26.25;;;16.40;;
25437;SDS011;13364;49.084;9.978;2024-03-08T10:21:35;31.27;;;16.20;;
25437;SDS011;13364;49.084;9.978;2024-03-08T10:24:13;28.38;;;15.70;;
25437;SDS011;13364;49.084;9.978;2024-03-08T10:26:40;26.23;;;15.13;;
25437;SDS011;13364;49.084;9.978;2024-03-08T10:29:09;24.15;;;14.20;;
25437;SDS011;13364;49.084;9.978;2024-03-08T10:31:44;26.25;;;15.45;;
25437;SDS011;13364;49.084;9.978;2024-03-08T10:34:12;25.98;;;13.75;;
25437;SDS011;13364;49.084;9.978;2024-03-08T10:36:39;28.60;;;14.85;;
25437;SDS011;13364;49.084;9.978;2024-03-08T10:39:10;28.55;;;15.75;;
25437;SDS011;13364;49.084;9.978;2024-03-08T10:41:58;27.13;;;14.68;;
25437;SDS011;13364;49.084;9.978;2024-03-08T10:50:18;28.40;;;14.32;;
25437;SDS011;13364;49.084;9.978;2024-03-08T10:52:51;28.83;;;15.90;;
25437;SDS011;13364;49.084;9.978;2024-03-08T10:55:18;26.52;;;14.85;;
25437;SDS011;13364;49.084;9.978;2024-03-08T11:00:15;25.85;;;14.20;;
25437;SDS011;13364;49.084;9.978;2024-03-08T11:02:45;28.92;;;15.43;;
25437;SDS011;13364;49.084;9.978;2024-03-08T11:05:31;27.52;;;14.88;;
25437;SDS011;13364;49.084;9.978;2024-03-08T11:10:50;25.67;;;14.15;;
25437;SDS011;13364;49.084;9.978;2024-03-08T11:13:33;23.13;;;14.05;;
25437;SDS011;13364;49.084;9.978;2024-03-08T11:16:07;27.60;;;15.50;;
25437;SDS011;13364;49.084;9.978;2024-03-08T11:18:36;21.77;;;13.05;;
25437;SDS011;13364;49.084;9.978;2024-03-08T11:21:10;24.90;;;14.23;;
25437;SDS011;13364;49.084;9.978;2024-03-08T11:23:40;24.10;;;14.57;;
25437;SDS011;13364;49.084;9.978;2024-03-08T11:26:17;27.85;;;14.75;;
25437;SDS011;13364;49.084;9.978;2024-03-08T11:28:45;25.63;;;14.32;;
25437;SDS011;13364;49.084;9.978;2024-03-08T11:33:40;26.02;;;14.02;;
25437;SDS011;13364;49.084;9.978;2024-03-08T11:36:10;28.08;;;14.25;;
25437;SDS011;13364;49.084;9.978;2024-03-08T11:38:45;28.80;;;14.32;;
25437;SDS011;13364;49.084;9.978;2024-03-08T11:41:19;25.02;;;13.73;;
25437;SDS011;13364;49.084;9.978;2024-03-08T11:43:47;27.55;;;15.02;;
25437;SDS011;13364;49.084;9.978;2024-03-08T11:46:15;27.73;;;14.90;;
25437;SDS011;13364;49.084;9.978;2024-03-08T11:48:46;28.42;;;14.13;;
25437;SDS011;13364;49.084;9.978;2024-03-08T11:51:14;25.90;;;14.48;;
25437;SDS011;13364;49.084;9.978;2024-03-08T11:53:41;24.25;;;13.75;;
25437;SDS011;13364;49.084;9.978;2024-03-08T11:56:14;27.27;;;14.85;;
25437;SDS011;13364;49.084;9.978;2024-03-08T11:58:42;24.02;;;13.95;;
25437;SDS011;13364;49.084;9.978;2024-03-08T12:01:18;21.98;;;13.38;;
25437;SDS011;13364;49.084;9.978;2024-03-08T12:03:45;26.20;;;14.48;;
25437;SDS011;13364;49.084;9.978;2024-03-08T12:06:19;24.05;;;14.30;;
25437;SDS011;13364;49.084;9.978;2024-03-08T12:08:46;27.45;;;14.68;;
25437;SDS011;13364;49.084;9.978;2024-03-08T12:11:17;24.23;;;13.98;;
25437;SDS011;13364;49.084;9.978;2024-03-08T12:13:50;26.10;;;13.38;;
25437;SDS011;13364;49.084;9.978;2024-03-08T12:16:18;25.33;;;14.55;;
25437;SDS011;13364;49.084;9.978;2024-03-08T12:18:46;25.27;;;13.63;;
25437;SDS011;13364;49.084;9.978;2024-03-08T12:21:12;22.88;;;12.82;;
25437;SDS011;13364;49.084;9.978;2024-03-08T12:23:44;25.98;;;14.35;;
25437;SDS011;13364;49.084;9.978;2024-03-08T12:28:39;25.27;;;14.07;;
25437;SDS011;13364;49.084;9.978;2024-03-08T12:31:13;24.77;;;14.20;;
25437;SDS011;13364;49.084;9.978;2024-03-08T12:36:20;25.88;;;14.35;;
25437;SDS011;13364;49.084;9.978;2024-03-08T12:38:47;25.20;;;14.00;;
25437;SDS011;13364;49.084;9.978;2024-03-08T12:41:15;24.05;;;14.43;;
25437;SDS011;13364;49.084;9.978;2024-03-08T12:43:43;25.27;;;13.30;;
25437;SDS011;13364;49.084;9.978;2024-03-08T12:46:18;26.75;;;15.27;;
25437;SDS011;13364;49.084;9.978;2024-03-08T12:48:46;23.08;;;13.48;;
25437;SDS011;13364;49.084;9.978;2024-03-08T12:51:14;27.00;;;15.70;;
25437;SDS011;13364;49.084;9.978;2024-03-08T12:53:42;22.92;;;14.02;;
25437;SDS011;13364;49.084;9.978;2024-03-08T12:56:14;22.38;;;13.20;;
25437;SDS011;13364;49.084;9.978;2024-03-08T12:59:06;23.35;;;14.05;;
25437;SDS011;13364;49.084;9.978;2024-03-08T13:01:34;24.45;;;14.55;;
25437;SDS011;13364;49.084;9.978;2024-03-08T13:04:04;21.70;;;13.93;;
25437;SDS011;13364;49.084;9.978;2024-03-08T13:06:33;25.67;;;13.82;;
25437;SDS011;13364;49.084;9.978;2024-03-08T13:08:59;21.83;;;13.45;;
25437;SDS011;13364;49.084;9.978;2024-03-08T13:11:31;24.30;;;14.38;;
25437;SDS011;13364;49.084;9.978;2024-03-08T13:14:03;25.83;;;15.40;;
25437;SDS011;13364;49.084;9.978;2024-03-08T13:16:31;24.08;;;13.65;;
25437;SDS011;13364;49.084;9.978;2024-03-08T13:19:01;24.35;;;15.20;;
25437;SDS011;13364;49.084;9.978;2024-03-08T13:21:27;20.88;;;14.40;;
25437;SDS011;13364;49.084;9.978;2024-03-08T13:23:56;25.63;;;15.73;;
25437;SDS011;13364;49.084;9.978;2024-03-08T13:26:25;23.05;;;14.68;;
25437;SDS011;13364;49.084;9.978;2024-03-08T13:29:02;26.10;;;15.80;;
25437;SDS011;13364;49.084;9.978;2024-03-08T13:31:29;33.85;;;20.38;;
25437;SDS011;13364;49.084;9.978;2024-03-08T13:33:56;26.35;;;15.25;;
25437;SDS011;13364;49.084;9.978;2024-03-08T13:36:25;24.23;;;13.98;;
25437;SDS011;13364;49.084;9.978;2024-03-08T13:38:59;23.00;;;15.00;;
25437;SDS011;13364;49.084;9.978;2024-03-08T13:41:26;25.17;;;14.07;;
25437;SDS011;13364;49.084;9.978;2024-03-08T13:43:55;26.75;;;14.75;;
25437;SDS011;13364;49.084;9.978;2024-03-08T13:46:23;25.77;;;14.88;;
25437;SDS011;13364;49.084;9.978;2024-03-08T13:48:50;22.70;;;13.50;;
25437;SDS011;13364;49.084;9.978;2024-03-08T13:51:27;21.40;;;13.32;;
25437;SDS011;13364;49.084;9.978;2024-03-08T13:53:54;20.92;;;13.07;;
25437;SDS011;13364;49.084;9.978;2024-03-08T13:56:21;27.80;;;13.88;;
25437;SDS011;13364;49.084;9.978;2024-03-08T13:58:47;24.48;;;14.35;;
25437;SDS011;13364;49.084;9.978;2024-03-08T14:01:18;23.00;;;13.65;;
25437;SDS011;13364;49.084;9.978;2024-03-08T14:03:45;21.50;;;12.18;;
25437;SDS011;13364;49.084;9.978;2024-03-08T14:06:11;24.73;;;12.95;;
25437;SDS011;13364;49.084;9.978;2024-03-08T14:08:49;22.88;;;13.25;;
25437;SDS011;13364;49.084;9.978;2024-03-08T14:11:16;23.33;;;13.85;;
25437;SDS011;13364;49.084;9.978;2024-03-08T14:13:45;19.38;;;11.68;;
25437;SDS011;13364;49.084;9.978;2024-03-08T14:16:12;19.75;;;12.30;;
25437;SDS011;13364;49.084;9.978;2024-03-08T14:18:39;22.48;;;11.40;;
25437;SDS011;13364;49.084;9.978;2024-03-08T14:21:06;18.92;;;11.68;;
25437;SDS011;13364;49.084;9.978;2024-03-08T14:23:35;18.42;;;11.90;;
25437;SDS011;13364;49.084;9.978;2024-03-08T14:26:05;20.45;;;11.57;;
25437;SDS011;13364;49.084;9.978;2024-03-08T14:28:34;17.70;;;10.27;;
25437;SDS011;13364;49.084;9.978;2024-03-08T14:31:02;18.00;;;10.15;;
25437;SDS011;13364;49.084;9.978;2024-03-08T14:33:33;19.23;;;10.73;;
25437;SDS011;13364;49.084;9.978;2024-03-08T14:36:00;19.40;;;11.98;;
25437;SDS011;13364;49.084;9.978;2024-03-08T14:38:27;20.55;;;11.32;;
25437;SDS011;13364;49.084;9.978;2024-03-08T14:40:54;17.50;;;10.27;;
25437;SDS011;13364;49.084;9.978;2024-03-08T14:43:21;19.65;;;11.55;;
25437;SDS011;13364;49.084;9.978;2024-03-08T14:45:48;17.98;;;10.43;;
25437;SDS011;13364;49.084;9.978;2024-03-08T14:48:17;19.63;;;10.35;;
25437;SDS011;13364;49.084;9.978;2024-03-08T14:50:44;15.77;;;9.60;;
25437;SDS011;13364;49.084;9.978;2024-03-08T14:53:13;20.80;;;11.65;;
25437;SDS011;13364;49.084;9.978;2024-03-08T14:55:42;17.90;;;11.23;;